sensor_id;sensor_type;location;lat;lon;timestamp;temperature;humidity
41630;DHT22;27322;49.488;8.480;2023-05-18T00:01:54;12.20;98.30
41630;DHT22;27322;49.488;8.480;2023-05-18T00:04:19;12.10;98.30
41630;DHT22;27322;49.488;8.480;2023-05-18T00:06:51;12.10;98.60
41630;DHT22;27322;49.488;8.480;2023-05-18T00:09:34;12.10;98.60
41630;DHT22;27322;49.488;8.480;2023-05-18T00:12:01;12.10;99.10
41630;DHT22;27322;49.488;8.480;2023-05-18T00:14:27;12.10;99.20
41630;DHT22;27322;49.488;8.480;2023-05-18T00:16:53;12.00;99.40
41630;DHT22;27322;49.488;8.480;2023-05-18T00:19:20;12.00;99.90
41630;DHT22;27322;49.488;8.480;2023-05-18T00:21:47;12.00;99.90
41630;DHT22;27322;49.488;8.480;2023-05-18T00:24:13;11.90;99.60
41630;DHT22;27322;49.488;8.480;2023-05-18T00:26:40;11.90;99.60
41630;DHT22;27322;49.488;8.480;2023-05-18T00:29:06;11.90;99.90
41630;DHT22;27322;49.488;8.480;2023-05-18T00:31:33;11.90;99.90
41630;DHT22;27322;49.488;8.480;2023-05-18T00:36:29;11.80;99.90
41630;DHT22;27322;49.488;8.480;2023-05-18T00:38:58;11.80;99.90
41630;DHT22;27322;49.488;8.480;2023-05-18T00:41:25;11.70;99.90
41630;DHT22;27322;49.488;8.480;2023-05-18T00:43:52;11.70;99.90
41630;DHT22;27322;49.488;8.480;2023-05-18T00:46:18;11.60;99.90
41630;DHT22;27322;49.488;8.480;2023-05-18T00:48:43;11.60;99.90
41630;DHT22;27322;49.488;8.480;2023-05-18T00:51:11;11.60;99.90
41630;DHT22;27322;49.488;8.480;2023-05-18T00:53:37;11.60;99.90
41630;DHT22;27322;49.488;8.480;2023-05-18T00:56:03;11.50;99.90
41630;DHT22;27322;49.488;8.480;2023-05-18T00:58:29;11.50;99.90
41630;DHT22;27322;49.488;8.480;2023-05-18T01:00:55;11.50;99.90
41630;DHT22;27322;49.488;8.480;2023-05-18T01:03:21;11.50;99.90
41630;DHT22;27322;49.488;8.480;2023-05-18T01:05:47;11.50;99.90
41630;DHT22;27322;49.488;8.480;2023-05-18T01:08:23;11.40;99.90
41630;DHT22;27322;49.488;8.480;2023-05-18T01:16:22;11.40;99.90
41630;DHT22;27322;49.488;8.480;2023-05-18T01:18:59;11.40;99.90
41630;DHT22;27322;49.488;8.480;2023-05-18T01:21:56;11.40;99.90
41630;DHT22;27322;49.488;8.480;2023-05-18T01:24:37;11.40;99.90
41630;DHT22;27322;49.488;8.480;2023-05-18T01:27:07;11.30;99.90
41630;DHT22;27322;49.488;8.480;2023-05-18T01:29:33;11.30;99.90
41630;DHT22;27322;49.488;8.480;2023-05-18T01:31:59;11.30;99.90
41630;DHT22;27322;49.488;8.480;2023-05-18T01:34:25;11.20;99.90
41630;DHT22;27322;49.488;8.480;2023-05-18T01:36:51;11.30;99.90
41630;DHT22;27322;49.488;8.480;2023-05-18T01:39:17;11.20;99.90
41630;DHT22;27322;49.488;8.480;2023-05-18T01:41:51;11.20;99.90
41630;DHT22;27322;49.488;8.480;2023-05-18T01:44:35;11.20;99.90
41630;DHT22;27322;49.488;8.480;2023-05-18T01:47:21;11.20;99.90
41630;DHT22;27322;49.488;8.480;2023-05-18T01:52:31;11.20;99.90
41630;DHT22;27322;49.488;8.480;2023-05-18T01:55:00;11.20;99.90
41630;DHT22;27322;49.488;8.480;2023-05-18T01:57:29;11.20;99.90
41630;DHT22;27322;49.488;8.480;2023-05-18T01:59:57;11.20;99.90
41630;DHT22;27322;49.488;8.480;2023-05-18T02:02:25;11.20;99.90
41630;DHT22;27322;49.488;8.480;2023-05-18T02:04:51;11.20;99.90
41630;DHT22;27322;49.488;8.480;2023-05-18T02:07:16;11.10;99.90
41630;DHT22;27322;49.488;8.480;2023-05-18T02:09:42;11.10;99.90
41630;DHT22;27322;49.488;8.480;2023-05-18T02:12:11;11.10;99.90
41630;DHT22;27322;49.488;8.480;2023-05-18T02:14:37;11.10;99.90
41630;DHT22;27322;49.488;8.480;2023-05-18T02:17:02;11.10;99.90
41630;DHT22;27322;49.488;8.480;2023-05-18T02:19:28;11.10;99.90
41630;DHT22;27322;49.488;8.480;2023-05-18T02:21:57;11.00;99.90
41630;DHT22;27322;49.488;8.480;2023-05-18T02:24:22;11.00;99.90
41630;DHT22;27322;49.488;8.480;2023-05-18T02:26:49;11.00;99.90
41630;DHT22;27322;49.488;8.480;2023-05-18T02:29:16;11.00;99.90
41630;DHT22;27322;49.488;8.480;2023-05-18T02:31:41;10.90;99.90
41630;DHT22;27322;49.488;8.480;2023-05-18T02:34:07;11.00;99.90
41630;DHT22;27322;49.488;8.480;2023-05-18T02:36:33;10.90;99.90
41630;DHT22;27322;49.488;8.480;2023-05-18T02:39:04;10.90;99.90
41630;DHT22;27322;49.488;8.480;2023-05-18T02:41:31;10.90;99.90
41630;DHT22;27322;49.488;8.480;2023-05-18T02:43:57;11.00;99.90
41630;DHT22;27322;49.488;8.480;2023-05-18T02:46:22;10.90;99.90
41630;DHT22;27322;49.488;8.480;2023-05-18T02:48:48;11.00;99.90
41630;DHT22;27322;49.488;8.480;2023-05-18T02:51:13;11.00;99.90
41630;DHT22;27322;49.488;8.480;2023-05-18T02:53:39;11.00;99.90
41630;DHT22;27322;49.488;8.480;2023-05-18T02:56:05;11.00;99.90
41630;DHT22;27322;49.488;8.480;2023-05-18T02:58:31;11.00;99.90
41630;DHT22;27322;49.488;8.480;2023-05-18T03:00:57;11.00;99.90
41630;DHT22;27322;49.488;8.480;2023-05-18T03:03:24;10.90;99.90
41630;DHT22;27322;49.488;8.480;2023-05-18T03:05:50;11.00;99.90
41630;DHT22;27322;49.488;8.480;2023-05-18T03:08:19;10.90;99.90
41630;DHT22;27322;49.488;8.480;2023-05-18T03:10:45;10.90;99.90
41630;DHT22;27322;49.488;8.480;2023-05-18T03:13:10;10.90;99.90
41630;DHT22;27322;49.488;8.480;2023-05-18T03:15:36;10.90;99.90
41630;DHT22;27322;49.488;8.480;2023-05-18T03:18:02;10.90;99.90
41630;DHT22;27322;49.488;8.480;2023-05-18T03:20:28;10.90;99.90
41630;DHT22;27322;49.488;8.480;2023-05-18T03:22:56;10.80;99.90
41630;DHT22;27322;49.488;8.480;2023-05-18T03:25:21;10.80;99.90
41630;DHT22;27322;49.488;8.480;2023-05-18T03:27:50;10.80;99.90
41630;DHT22;27322;49.488;8.480;2023-05-18T03:30:18;10.80;99.90
41630;DHT22;27322;49.488;8.480;2023-05-18T03:32:45;10.80;99.90
41630;DHT22;27322;49.488;8.480;2023-05-18T03:35:12;10.80;99.90
41630;DHT22;27322;49.488;8.480;2023-05-18T03:37:38;10.70;99.90
41630;DHT22;27322;49.488;8.480;2023-05-18T03:40:14;10.70;99.90
41630;DHT22;27322;49.488;8.480;2023-05-18T03:42:41;10.70;99.90
41630;DHT22;27322;49.488;8.480;2023-05-18T03:45:10;10.70;99.90
41630;DHT22;27322;49.488;8.480;2023-05-18T03:47:37;10.70;99.90
41630;DHT22;27322;49.488;8.480;2023-05-18T03:50:03;10.60;99.90
41630;DHT22;27322;49.488;8.480;2023-05-18T03:52:30;10.60;99.90
41630;DHT22;27322;49.488;8.480;2023-05-18T03:55:01;10.50;99.90
41630;DHT22;27322;49.488;8.480;2023-05-18T03:57:28;10.50;99.90
41630;DHT22;27322;49.488;8.480;2023-05-18T03:59:54;10.50;99.90
41630;DHT22;27322;49.488;8.480;2023-05-18T04:02:20;10.50;99.90
41630;DHT22;27322;49.488;8.480;2023-05-18T04:04:48;10.50;99.90
41630;DHT22;27322;49.488;8.480;2023-05-18T04:07:14;10.50;99.90
41630;DHT22;27322;49.488;8.480;2023-05-18T04:09:46;10.50;99.90
41630;DHT22;27322;49.488;8.480;2023-05-18T04:12:12;10.50;99.90
41630;DHT22;27322;49.488;8.480;2023-05-18T04:14:38;10.50;99.90
41630;DHT22;27322;49.488;8.480;2023-05-18T04:17:06;10.40;99.90
41630;DHT22;27322;49.488;8.480;2023-05-18T04:19:36;10.50;99.90
41630;DHT22;27322;49.488;8.480;2023-05-18T04:22:02;10.50;99.90
41630;DHT22;27322;49.488;8.480;2023-05-18T04:24:31;10.50;99.90
41630;DHT22;27322;49.488;8.480;2023-05-18T04:26:59;10.50;99.90
41630;DHT22;27322;49.488;8.480;2023-05-18T04:29:26;10.40;99.90
41630;DHT22;27322;49.488;8.480;2023-05-18T04:31:56;10.40;99.90
41630;DHT22;27322;49.488;8.480;2023-05-18T04:34:26;10.40;99.90
41630;DHT22;27322;49.488;8.480;2023-05-18T04:36:51;10.40;99.90
41630;DHT22;27322;49.488;8.480;2023-05-18T04:39:21;10.40;99.90
41630;DHT22;27322;49.488;8.480;2023-05-18T04:41:51;10.40;99.90
41630;DHT22;27322;49.488;8.480;2023-05-18T04:44:31;10.40;99.90
41630;DHT22;27322;49.488;8.480;2023-05-18T04:47:01;10.40;99.90
41630;DHT22;27322;49.488;8.480;2023-05-18T04:49:27;10.40;99.90
41630;DHT22;27322;49.488;8.480;2023-05-18T04:51:55;10.50;99.90
41630;DHT22;27322;49.488;8.480;2023-05-18T04:54:24;10.50;99.90
41630;DHT22;27322;49.488;8.480;2023-05-18T04:56:50;10.50;99.90
41630;DHT22;27322;49.488;8.480;2023-05-18T04:59:17;10.50;99.90
41630;DHT22;27322;49.488;8.480;2023-05-18T05:01:42;10.50;99.90
41630;DHT22;27322;49.488;8.480;2023-05-18T05:04:08;10.50;99.90
41630;DHT22;27322;49.488;8.480;2023-05-18T05:06:34;10.50;99.90
41630;DHT22;27322;49.488;8.480;2023-05-18T05:09:00;10.50;99.90
41630;DHT22;27322;49.488;8.480;2023-05-18T05:11:25;10.50;99.90
41630;DHT22;27322;49.488;8.480;2023-05-18T05:13:51;10.50;99.90
41630;DHT22;27322;49.488;8.480;2023-05-18T05:16:17;10.50;99.90
41630;DHT22;27322;49.488;8.480;2023-05-18T05:18:42;10.60;99.90
41630;DHT22;27322;49.488;8.480;2023-05-18T05:21:08;10.60;99.90
41630;DHT22;27322;49.488;8.480;2023-05-18T05:23:34;10.60;99.90
41630;DHT22;27322;49.488;8.480;2023-05-18T05:26:00;10.60;99.90
41630;DHT22;27322;49.488;8.480;2023-05-18T05:28:26;10.70;99.90
41630;DHT22;27322;49.488;8.480;2023-05-18T05:30:51;10.70;99.90
41630;DHT22;27322;49.488;8.480;2023-05-18T05:33:17;10.70;99.90
41630;DHT22;27322;49.488;8.480;2023-05-18T05:35:43;10.70;99.90
41630;DHT22;27322;49.488;8.480;2023-05-18T05:38:08;10.70;99.90
41630;DHT22;27322;49.488;8.480;2023-05-18T05:40:34;10.80;99.90
41630;DHT22;27322;49.488;8.480;2023-05-18T05:43:00;10.80;99.90
41630;DHT22;27322;49.488;8.480;2023-05-18T05:45:25;10.90;99.90
41630;DHT22;27322;49.488;8.480;2023-05-18T05:47:53;10.90;99.90
41630;DHT22;27322;49.488;8.480;2023-05-18T05:50:18;10.90;99.90
41630;DHT22;27322;49.488;8.480;2023-05-18T05:52:44;11.00;99.90
41630;DHT22;27322;49.488;8.480;2023-05-18T05:55:10;11.00;99.90
41630;DHT22;27322;49.488;8.480;2023-05-18T05:57:35;11.00;99.90
41630;DHT22;27322;49.488;8.480;2023-05-18T06:00:01;11.00;99.90
41630;DHT22;27322;49.488;8.480;2023-05-18T06:02:28;11.10;99.90
41630;DHT22;27322;49.488;8.480;2023-05-18T06:04:54;11.10;99.90
41630;DHT22;27322;49.488;8.480;2023-05-18T06:07:19;11.10;99.90
41630;DHT22;27322;49.488;8.480;2023-05-18T06:09:45;11.20;99.90
41630;DHT22;27322;49.488;8.480;2023-05-18T06:12:10;11.20;99.90
41630;DHT22;27322;49.488;8.480;2023-05-18T06:14:36;11.20;99.90
41630;DHT22;27322;49.488;8.480;2023-05-18T06:17:02;11.30;99.90
41630;DHT22;27322;49.488;8.480;2023-05-18T06:19:27;11.30;99.90
41630;DHT22;27322;49.488;8.480;2023-05-18T06:21:53;11.40;99.90
41630;DHT22;27322;49.488;8.480;2023-05-18T06:24:18;11.50;99.90
41630;DHT22;27322;49.488;8.480;2023-05-18T06:26:44;11.60;99.90
41630;DHT22;27322;49.488;8.480;2023-05-18T06:29:10;11.60;99.90
41630;DHT22;27322;49.488;8.480;2023-05-18T06:31:35;11.70;99.90
41630;DHT22;27322;49.488;8.480;2023-05-18T06:34:01;11.70;99.90
41630;DHT22;27322;49.488;8.480;2023-05-18T06:36:26;11.80;99.90
41630;DHT22;27322;49.488;8.480;2023-05-18T06:38:52;11.90;99.90
41630;DHT22;27322;49.488;8.480;2023-05-18T06:41:18;12.00;99.90
41630;DHT22;27322;49.488;8.480;2023-05-18T06:43:43;12.00;99.90
41630;DHT22;27322;49.488;8.480;2023-05-18T06:46:18;12.10;99.90
41630;DHT22;27322;49.488;8.480;2023-05-18T06:48:43;12.10;99.90
41630;DHT22;27322;49.488;8.480;2023-05-18T06:51:10;12.20;99.90
41630;DHT22;27322;49.488;8.480;2023-05-18T06:53:35;12.20;99.90
41630;DHT22;27322;49.488;8.480;2023-05-18T06:56:01;12.30;99.90
41630;DHT22;27322;49.488;8.480;2023-05-18T06:58:26;12.40;99.90
41630;DHT22;27322;49.488;8.480;2023-05-18T07:00:52;12.40;99.90
41630;DHT22;27322;49.488;8.480;2023-05-18T07:03:18;12.50;99.90
41630;DHT22;27322;49.488;8.480;2023-05-18T07:05:44;12.50;99.90
41630;DHT22;27322;49.488;8.480;2023-05-18T07:08:09;12.60;99.90
41630;DHT22;27322;49.488;8.480;2023-05-18T07:10:35;12.60;99.90
41630;DHT22;27322;49.488;8.480;2023-05-18T07:13:01;12.70;99.90
41630;DHT22;27322;49.488;8.480;2023-05-18T07:15:27;12.80;99.90
41630;DHT22;27322;49.488;8.480;2023-05-18T07:17:52;12.80;99.90
41630;DHT22;27322;49.488;8.480;2023-05-18T07:20:18;12.90;99.90
41630;DHT22;27322;49.488;8.480;2023-05-18T07:22:43;12.90;99.90
41630;DHT22;27322;49.488;8.480;2023-05-18T07:25:09;12.90;99.90
41630;DHT22;27322;49.488;8.480;2023-05-18T07:27:34;13.00;99.90
41630;DHT22;27322;49.488;8.480;2023-05-18T07:30:00;13.00;99.90
41630;DHT22;27322;49.488;8.480;2023-05-18T07:32:26;13.10;99.90
41630;DHT22;27322;49.488;8.480;2023-05-18T07:34:51;13.20;99.90
41630;DHT22;27322;49.488;8.480;2023-05-18T07:37:17;13.30;99.90
41630;DHT22;27322;49.488;8.480;2023-05-18T07:39:43;13.30;99.90
41630;DHT22;27322;49.488;8.480;2023-05-18T07:42:08;13.40;99.90
41630;DHT22;27322;49.488;8.480;2023-05-18T07:44:35;13.40;99.90
41630;DHT22;27322;49.488;8.480;2023-05-18T07:47:01;13.50;99.90
41630;DHT22;27322;49.488;8.480;2023-05-18T07:49:26;13.60;99.90
41630;DHT22;27322;49.488;8.480;2023-05-18T07:51:52;13.60;99.90
41630;DHT22;27322;49.488;8.480;2023-05-18T07:54:17;13.70;99.90
41630;DHT22;27322;49.488;8.480;2023-05-18T07:56:43;13.80;99.90
41630;DHT22;27322;49.488;8.480;2023-05-18T07:59:09;13.90;99.90
41630;DHT22;27322;49.488;8.480;2023-05-18T08:01:35;13.90;99.90
41630;DHT22;27322;49.488;8.480;2023-05-18T08:04:02;14.00;99.90
41630;DHT22;27322;49.488;8.480;2023-05-18T08:06:28;14.10;99.90
41630;DHT22;27322;49.488;8.480;2023-05-18T08:08:53;14.10;99.90
41630;DHT22;27322;49.488;8.480;2023-05-18T08:11:21;14.20;99.90
41630;DHT22;27322;49.488;8.480;2023-05-18T08:13:47;14.30;99.90
41630;DHT22;27322;49.488;8.480;2023-05-18T08:16:13;14.30;99.90
41630;DHT22;27322;49.488;8.480;2023-05-18T08:18:39;14.30;99.80
41630;DHT22;27322;49.488;8.480;2023-05-18T08:21:05;14.40;99.90
41630;DHT22;27322;49.488;8.480;2023-05-18T08:23:36;14.50;99.90
41630;DHT22;27322;49.488;8.480;2023-05-18T08:26:02;14.50;99.90
41630;DHT22;27322;49.488;8.480;2023-05-18T08:28:29;14.60;99.50
41630;DHT22;27322;49.488;8.480;2023-05-18T08:30:55;14.70;99.40
41630;DHT22;27322;49.488;8.480;2023-05-18T08:33:21;14.70;99.50
41630;DHT22;27322;49.488;8.480;2023-05-18T08:35:48;14.80;98.90
41630;DHT22;27322;49.488;8.480;2023-05-18T08:38:13;14.80;99.20
41630;DHT22;27322;49.488;8.480;2023-05-18T08:40:49;14.90;98.40
41630;DHT22;27322;49.488;8.480;2023-05-18T08:43:21;15.00;98.30
41630;DHT22;27322;49.488;8.480;2023-05-18T08:46:22;15.00;97.80
41630;DHT22;27322;49.488;8.480;2023-05-18T08:48:51;15.10;97.20
41630;DHT22;27322;49.488;8.480;2023-05-18T08:51:19;15.10;96.40
41630;DHT22;27322;49.488;8.480;2023-05-18T08:53:53;15.10;95.60
41630;DHT22;27322;49.488;8.480;2023-05-18T08:56:22;15.20;95.40
41630;DHT22;27322;49.488;8.480;2023-05-18T08:58:51;15.20;96.30
41630;DHT22;27322;49.488;8.480;2023-05-18T09:01:19;15.20;96.40
41630;DHT22;27322;49.488;8.480;2023-05-18T09:03:49;15.20;97.00
41630;DHT22;27322;49.488;8.480;2023-05-18T09:06:15;15.20;96.50
41630;DHT22;27322;49.488;8.480;2023-05-18T09:08:41;15.20;94.70
41630;DHT22;27322;49.488;8.480;2023-05-18T09:11:07;15.30;94.70
41630;DHT22;27322;49.488;8.480;2023-05-18T09:13:33;15.30;95.50
41630;DHT22;27322;49.488;8.480;2023-05-18T09:15:59;15.30;95.10
41630;DHT22;27322;49.488;8.480;2023-05-18T09:18:24;15.40;94.80
41630;DHT22;27322;49.488;8.480;2023-05-18T09:20:50;15.40;94.90
41630;DHT22;27322;49.488;8.480;2023-05-18T09:23:16;15.50;94.70
41630;DHT22;27322;49.488;8.480;2023-05-18T09:25:46;15.50;94.80
41630;DHT22;27322;49.488;8.480;2023-05-18T09:28:25;15.50;95.20
41630;DHT22;27322;49.488;8.480;2023-05-18T09:30:51;15.50;94.20
41630;DHT22;27322;49.488;8.480;2023-05-18T09:33:19;15.50;94.50
41630;DHT22;27322;49.488;8.480;2023-05-18T09:35:46;15.60;94.30
41630;DHT22;27322;49.488;8.480;2023-05-18T09:38:15;15.60;93.70
41630;DHT22;27322;49.488;8.480;2023-05-18T09:40:47;15.60;94.50
41630;DHT22;27322;49.488;8.480;2023-05-18T09:43:13;15.70;94.80
41630;DHT22;27322;49.488;8.480;2023-05-18T09:45:44;15.80;94.30
41630;DHT22;27322;49.488;8.480;2023-05-18T09:48:11;16.00;94.30
41630;DHT22;27322;49.488;8.480;2023-05-18T09:50:38;16.20;95.00
41630;DHT22;27322;49.488;8.480;2023-05-18T09:53:10;16.40;90.60
41630;DHT22;27322;49.488;8.480;2023-05-18T09:55:43;16.70;91.10
41630;DHT22;27322;49.488;8.480;2023-05-18T09:58:09;16.90;88.20
41630;DHT22;27322;49.488;8.480;2023-05-18T10:00:37;17.20;88.30
41630;DHT22;27322;49.488;8.480;2023-05-18T10:03:19;17.40;87.00
41630;DHT22;27322;49.488;8.480;2023-05-18T10:05:46;17.70;81.50
41630;DHT22;27322;49.488;8.480;2023-05-18T10:08:13;17.80;82.60
41630;DHT22;27322;49.488;8.480;2023-05-18T10:10:45;18.00;80.10
41630;DHT22;27322;49.488;8.480;2023-05-18T10:13:15;18.00;77.00
41630;DHT22;27322;49.488;8.480;2023-05-18T10:15:57;18.00;72.40
41630;DHT22;27322;49.488;8.480;2023-05-18T10:18:29;18.10;73.80
41630;DHT22;27322;49.488;8.480;2023-05-18T10:20:58;18.30;76.10
41630;DHT22;27322;49.488;8.480;2023-05-18T10:23:25;18.40;75.90
41630;DHT22;27322;49.488;8.480;2023-05-18T10:25:52;18.40;76.00
41630;DHT22;27322;49.488;8.480;2023-05-18T10:28:24;18.40;75.30
41630;DHT22;27322;49.488;8.480;2023-05-18T10:30:56;18.30;73.50
41630;DHT22;27322;49.488;8.480;2023-05-18T10:33:27;18.30;72.10
41630;DHT22;27322;49.488;8.480;2023-05-18T10:35:53;18.20;72.60
41630;DHT22;27322;49.488;8.480;2023-05-18T10:38:24;18.20;71.10
41630;DHT22;27322;49.488;8.480;2023-05-18T10:40:52;18.10;70.70
41630;DHT22;27322;49.488;8.480;2023-05-18T10:43:20;18.00;70.50
41630;DHT22;27322;49.488;8.480;2023-05-18T10:45:50;17.90;69.90
41630;DHT22;27322;49.488;8.480;2023-05-18T10:48:18;17.70;71.00
41630;DHT22;27322;49.488;8.480;2023-05-18T10:50:50;17.60;72.20
41630;DHT22;27322;49.488;8.480;2023-05-18T10:53:26;17.50;72.60
41630;DHT22;27322;49.488;8.480;2023-05-18T10:55:53;17.30;73.50
41630;DHT22;27322;49.488;8.480;2023-05-18T10:58:21;17.20;74.10
41630;DHT22;27322;49.488;8.480;2023-05-18T11:00:56;17.10;73.90
41630;DHT22;27322;49.488;8.480;2023-05-18T11:03:23;17.00;73.30
41630;DHT22;27322;49.488;8.480;2023-05-18T11:05:54;16.90;74.00
41630;DHT22;27322;49.488;8.480;2023-05-18T11:08:27;16.80;74.10
41630;DHT22;27322;49.488;8.480;2023-05-18T11:11:03;16.70;73.70
41630;DHT22;27322;49.488;8.480;2023-05-18T11:13:36;16.70;73.90
41630;DHT22;27322;49.488;8.480;2023-05-18T11:16:17;16.80;75.00
41630;DHT22;27322;49.488;8.480;2023-05-18T11:18:49;16.80;76.10
41630;DHT22;27322;49.488;8.480;2023-05-18T11:21:28;16.80;74.30
41630;DHT22;27322;49.488;8.480;2023-05-18T11:24:31;16.80;74.60
41630;DHT22;27322;49.488;8.480;2023-05-18T11:27:15;16.80;75.10
41630;DHT22;27322;49.488;8.480;2023-05-18T11:29:42;16.70;74.60
41630;DHT22;27322;49.488;8.480;2023-05-18T11:32:22;16.80;75.00
41630;DHT22;27322;49.488;8.480;2023-05-18T11:34:54;16.80;74.70
41630;DHT22;27322;49.488;8.480;2023-05-18T11:40:08;16.80;74.00
41630;DHT22;27322;49.488;8.480;2023-05-18T11:42:38;16.80;74.10
41630;DHT22;27322;49.488;8.480;2023-05-18T11:45:10;16.80;75.20
41630;DHT22;27322;49.488;8.480;2023-05-18T11:47:37;16.80;74.70
41630;DHT22;27322;49.488;8.480;2023-05-18T11:50:09;16.70;75.10
41630;DHT22;27322;49.488;8.480;2023-05-18T11:52:47;16.70;75.60
41630;DHT22;27322;49.488;8.480;2023-05-18T11:55:18;16.70;74.60
41630;DHT22;27322;49.488;8.480;2023-05-18T11:57:49;16.70;72.40
41630;DHT22;27322;49.488;8.480;2023-05-18T12:00:19;16.70;75.20
41630;DHT22;27322;49.488;8.480;2023-05-18T12:02:46;16.70;74.70
41630;DHT22;27322;49.488;8.480;2023-05-18T12:05:12;16.70;73.80
41630;DHT22;27322;49.488;8.480;2023-05-18T12:07:40;16.70;74.10
41630;DHT22;27322;49.488;8.480;2023-05-18T12:12:33;16.80;71.50
41630;DHT22;27322;49.488;8.480;2023-05-18T12:15:04;16.80;73.90
41630;DHT22;27322;49.488;8.480;2023-05-18T12:17:43;16.80;74.70
41630;DHT22;27322;49.488;8.480;2023-05-18T12:20:11;16.90;72.90
41630;DHT22;27322;49.488;8.480;2023-05-18T12:22:41;16.90;72.60
41630;DHT22;27322;49.488;8.480;2023-05-18T12:25:08;16.90;73.10
41630;DHT22;27322;49.488;8.480;2023-05-18T12:27:38;16.90;73.30
41630;DHT22;27322;49.488;8.480;2023-05-18T12:30:20;17.00;73.40
41630;DHT22;27322;49.488;8.480;2023-05-18T12:32:54;17.00;73.70
41630;DHT22;27322;49.488;8.480;2023-05-18T12:35:24;17.00;73.80
41630;DHT22;27322;49.488;8.480;2023-05-18T12:37:50;17.10;73.90
41630;DHT22;27322;49.488;8.480;2023-05-18T12:40:17;17.10;74.20
41630;DHT22;27322;49.488;8.480;2023-05-18T12:45:28;17.10;73.70
41630;DHT22;27322;49.488;8.480;2023-05-18T12:48:11;17.10;74.90
41630;DHT22;27322;49.488;8.480;2023-05-18T12:50:57;17.10;73.60
41630;DHT22;27322;49.488;8.480;2023-05-18T12:53:23;17.10;72.40
41630;DHT22;27322;49.488;8.480;2023-05-18T12:55:58;17.10;72.30
41630;DHT22;27322;49.488;8.480;2023-05-18T12:58:24;17.10;74.60
41630;DHT22;27322;49.488;8.480;2023-05-18T13:00:50;17.10;73.00
41630;DHT22;27322;49.488;8.480;2023-05-18T13:03:17;17.10;73.00
41630;DHT22;27322;49.488;8.480;2023-05-18T13:05:45;17.10;74.40
41630;DHT22;27322;49.488;8.480;2023-05-18T13:08:25;17.10;73.40
41630;DHT22;27322;49.488;8.480;2023-05-18T13:10:51;17.10;72.80
41630;DHT22;27322;49.488;8.480;2023-05-18T13:13:16;17.10;72.70
41630;DHT22;27322;49.488;8.480;2023-05-18T13:15:43;17.10;74.50
41630;DHT22;27322;49.488;8.480;2023-05-18T13:18:09;17.10;73.90
41630;DHT22;27322;49.488;8.480;2023-05-18T13:20:42;17.10;72.70
41630;DHT22;27322;49.488;8.480;2023-05-18T13:23:13;17.10;73.10
41630;DHT22;27322;49.488;8.480;2023-05-18T13:25:41;17.10;72.10
41630;DHT22;27322;49.488;8.480;2023-05-18T13:28:07;17.20;71.70
41630;DHT22;27322;49.488;8.480;2023-05-18T13:30:35;17.20;72.90
41630;DHT22;27322;49.488;8.480;2023-05-18T13:33:01;17.30;72.80
41630;DHT22;27322;49.488;8.480;2023-05-18T13:35:27;17.20;73.50
41630;DHT22;27322;49.488;8.480;2023-05-18T13:37:53;17.30;73.80
41630;DHT22;27322;49.488;8.480;2023-05-18T13:40:20;17.30;72.80
41630;DHT22;27322;49.488;8.480;2023-05-18T13:42:46;17.30;71.90
41630;DHT22;27322;49.488;8.480;2023-05-18T13:45:13;17.30;71.90
41630;DHT22;27322;49.488;8.480;2023-05-18T13:47:39;17.30;71.90
41630;DHT22;27322;49.488;8.480;2023-05-18T13:50:06;17.30;72.60
41630;DHT22;27322;49.488;8.480;2023-05-18T13:52:32;17.40;72.20
41630;DHT22;27322;49.488;8.480;2023-05-18T13:54:58;17.40;70.90
41630;DHT22;27322;49.488;8.480;2023-05-18T13:57:24;17.50;71.90
41630;DHT22;27322;49.488;8.480;2023-05-18T13:59:51;17.50;72.10
41630;DHT22;27322;49.488;8.480;2023-05-18T14:02:17;17.60;71.10
41630;DHT22;27322;49.488;8.480;2023-05-18T14:04:43;17.60;70.40
41630;DHT22;27322;49.488;8.480;2023-05-18T14:07:09;17.50;71.00
41630;DHT22;27322;49.488;8.480;2023-05-18T14:09:35;17.50;70.40
41630;DHT22;27322;49.488;8.480;2023-05-18T14:12:01;17.40;70.20
41630;DHT22;27322;49.488;8.480;2023-05-18T14:14:29;17.40;71.10
41630;DHT22;27322;49.488;8.480;2023-05-18T14:16:55;17.40;70.30
41630;DHT22;27322;49.488;8.480;2023-05-18T14:19:20;17.40;71.10
41630;DHT22;27322;49.488;8.480;2023-05-18T14:21:46;17.30;70.40
41630;DHT22;27322;49.488;8.480;2023-05-18T14:24:11;17.40;69.10
41630;DHT22;27322;49.488;8.480;2023-05-18T14:26:39;17.30;69.30
41630;DHT22;27322;49.488;8.480;2023-05-18T14:29:05;17.30;70.50
41630;DHT22;27322;49.488;8.480;2023-05-18T14:31:31;17.30;69.10
41630;DHT22;27322;49.488;8.480;2023-05-18T14:33:57;17.30;68.50
41630;DHT22;27322;49.488;8.480;2023-05-18T14:36:23;17.30;69.40
41630;DHT22;27322;49.488;8.480;2023-05-18T14:38:49;17.30;69.40
41630;DHT22;27322;49.488;8.480;2023-05-18T14:41:14;17.30;70.20
41630;DHT22;27322;49.488;8.480;2023-05-18T14:43:40;17.30;70.90
41630;DHT22;27322;49.488;8.480;2023-05-18T14:46:06;17.30;70.70
41630;DHT22;27322;49.488;8.480;2023-05-18T14:48:32;17.30;71.30
41630;DHT22;27322;49.488;8.480;2023-05-18T14:50:57;17.30;69.10
41630;DHT22;27322;49.488;8.480;2023-05-18T14:53:23;17.40;70.20
41630;DHT22;27322;49.488;8.480;2023-05-18T14:55:48;17.40;69.10
41630;DHT22;27322;49.488;8.480;2023-05-18T14:58:14;17.40;69.70
41630;DHT22;27322;49.488;8.480;2023-05-18T15:00:40;17.40;70.20
41630;DHT22;27322;49.488;8.480;2023-05-18T15:03:06;17.40;70.80
41630;DHT22;27322;49.488;8.480;2023-05-18T15:05:32;17.40;71.70
41630;DHT22;27322;49.488;8.480;2023-05-18T15:07:58;17.40;70.50
41630;DHT22;27322;49.488;8.480;2023-05-18T15:10:23;17.50;70.40
41630;DHT22;27322;49.488;8.480;2023-05-18T15:12:49;17.50;70.20
41630;DHT22;27322;49.488;8.480;2023-05-18T15:15:14;17.50;69.80
41630;DHT22;27322;49.488;8.480;2023-05-18T15:17:41;17.50;69.50
41630;DHT22;27322;49.488;8.480;2023-05-18T15:20:07;17.50;69.50
41630;DHT22;27322;49.488;8.480;2023-05-18T15:22:33;17.50;69.40
41630;DHT22;27322;49.488;8.480;2023-05-18T15:25:09;17.50;68.90
41630;DHT22;27322;49.488;8.480;2023-05-18T15:27:36;17.50;68.80
41630;DHT22;27322;49.488;8.480;2023-05-18T15:30:03;17.50;69.50
41630;DHT22;27322;49.488;8.480;2023-05-18T15:32:31;17.50;69.80
41630;DHT22;27322;49.488;8.480;2023-05-18T15:34:56;17.50;69.50
41630;DHT22;27322;49.488;8.480;2023-05-18T15:37:23;17.40;69.90
41630;DHT22;27322;49.488;8.480;2023-05-18T15:39:48;17.40;71.10
41630;DHT22;27322;49.488;8.480;2023-05-18T15:42:14;17.40;71.50
41630;DHT22;27322;49.488;8.480;2023-05-18T15:44:40;17.40;70.80
41630;DHT22;27322;49.488;8.480;2023-05-18T15:47:05;17.40;70.50
41630;DHT22;27322;49.488;8.480;2023-05-18T15:49:31;17.40;71.30
41630;DHT22;27322;49.488;8.480;2023-05-18T15:51:57;17.30;72.10
41630;DHT22;27322;49.488;8.480;2023-05-18T15:54:22;17.40;71.10